Time;durP1;ratioP1;P1;durP2;ratioP2;P2;SDS_P1;SDS_P2;PMS_P1;PMS_P2;Temp;Humidity;BMP_temperature;BMP_pressure;BME280_temperature;BME280_humidity;BME280_pressure;Samples;Min_cycle;Max_cycle;Signal;HPM_P1;HPM_P2
2023/11/15 00:02:13;;;;;;;0.35;0.00;;;;;;;5.29;59.54;100374.97;4996847;28;20152;-69
2023/11/15 00:04:41;;;;;;;0.40;0.10;;;;;;;5.30;59.75;100379.25;5001533;28;20045;-68
2023/11/15 00:07:06;;;;;;;0.00;0.00;;;;;;;5.34;59.26;100388.63;4999687;28;20037;-68
2023/11/15 00:09:33;;;;;;;0.30;0.05;;;;;;;5.33;59.81;100394.72;5000917;28;20037;-71
2023/11/15 00:11:58;;;;;;;3.03;0.00;;;;;;;5.36;59.65;100407.59;4999296;28;20644;-69
2023/11/15 00:14:24;;;;;;;1.23;0.00;;;;;;;5.38;59.40;100411.00;5002391;28;20072;-69
2023/11/15 00:16:50;;;;;;;0.93;0.00;;;;;;;5.33;59.29;100413.72;5004505;28;20126;-69
2023/11/15 00:19:16;;;;;;;0.35;0.00;;;;;;;5.23;59.28;100422.59;4994100;28;22969;-69
2023/11/15 00:21:41;;;;;;;2.28;0.00;;;;;;;5.19;59.24;100431.31;5000443;28;20064;-71
2023/11/15 00:24:09;;;;;;;1.05;0.10;;;;;;;5.11;59.21;100430.69;4988104;28;20026;-69
2023/11/15 00:26:39;;;;;;;0.65;0.05;;;;;;;5.02;59.35;100431.75;4998045;28;20116;-70
2023/11/15 00:29:04;;;;;;;1.83;0.10;;;;;;;4.97;59.69;100433.59;4988153;28;20121;-69
2023/11/15 00:31:31;;;;;;;1.20;0.13;;;;;;;5.01;59.84;100437.81;4983942;28;21760;-70
2023/11/15 00:33:57;;;;;;;0.05;0.00;;;;;;;5.04;59.85;100437.75;5011746;28;20116;-68
2023/11/15 00:36:26;;;;;;;1.27;0.10;;;;;;;5.09;59.85;100435.88;5001120;28;20968;-69
2023/11/15 00:38:51;;;;;;;0.82;0.10;;;;;;;5.07;59.74;100435.06;4998443;28;20041;-72
2023/11/15 00:41:18;;;;;;;3.15;0.65;;;;;;;4.98;59.96;100443.06;4999656;28;20225;-72
2023/11/15 00:43:44;;;;;;;3.08;0.50;;;;;;;5.08;59.75;100451.47;5000498;28;20102;-73
2023/11/15 00:46:15;;;;;;;2.90;0.10;;;;;;;5.11;60.12;100465.19;4983365;28;20025;-73
2023/11/15 00:48:41;;;;;;;0.22;0.05;;;;;;;5.23;60.12;100464.94;5001621;28;20112;-66
2023/11/15 00:51:06;;;;;;;0.10;0.00;;;;;;;5.34;59.99;100471.56;4998161;28;20548;-67
2023/11/15 00:53:35;;;;;;;0.60;0.10;;;;;;;5.36;59.58;100474.97;4997423;28;20380;-65
2023/11/15 00:56:02;;;;;;;4.47;0.05;;;;;;;5.38;59.47;100473.19;4982516;28;20037;-67
2023/11/15 00:58:29;;;;;;;1.13;0.10;;;;;;;5.30;59.65;100480.31;4999198;28;20106;-67
2023/11/15 01:00:56;;;;;;;1.65;0.05;;;;;;;5.21;59.83;100483.97;5002924;28;20042;-68
2023/11/15 01:03:30;;;;;;;2.47;0.10;;;;;;;5.05;59.90;100499.84;4996573;28;20045;-66
2023/11/15 01:05:56;;;;;;;1.13;0.20;;;;;;;5.05;60.17;100510.22;5007502;28;20025;-67
2023/11/15 01:08:25;;;;;;;7.53;0.10;;;;;;;5.03;59.97;100508.56;4994172;28;20029;-68
2023/11/15 01:10:53;;;;;;;0.50;0.08;;;;;;;5.08;59.81;100514.50;5000854;28;20034;-69
2023/11/15 01:13:21;;;;;;;2.58;0.28;;;;;;;5.20;59.56;100516.81;5010154;28;20041;-69
2023/11/15 01:15:47;;;;;;;0.80;0.10;;;;;;;5.32;59.65;100522.59;5005278;28;20030;-68
2023/11/15 01:18:13;;;;;;;1.48;0.00;;;;;;;5.35;59.56;100530.31;5000390;28;20091;-68
2023/11/15 01:20:38;;;;;;;0.73;0.10;;;;;;;5.40;59.65;100534.47;4999587;28;20060;-66
2023/11/15 01:23:06;;;;;;;0.75;0.25;;;;;;;5.43;59.64;100543.91;4998108;28;20122;-67
2023/11/15 01:25:32;;;;;;;0.25;0.00;;;;;;;5.44;59.22;100540.44;4998002;28;20034;-71
2023/11/15 01:27:59;;;;;;;0.73;0.10;;;;;;;5.49;59.15;100546.38;4998911;28;20033;-71
2023/11/15 01:30:27;;;;;;;2.60;0.10;;;;;;;5.48;59.10;100556.75;5005117;28;20530;-72
2023/11/15 01:32:53;;;;;;;0.10;0.00;;;;;;;5.58;58.73;100559.09;5007562;28;20151;-71
2023/11/15 01:35:19;;;;;;;1.23;0.10;;;;;;;5.58;58.55;100563.44;5003596;28;20133;-72
2023/11/15 01:37:46;;;;;;;2.80;0.17;;;;;;;5.62;58.88;100565.91;5000590;28;20109;-69
2023/11/15 01:40:13;;;;;;;1.63;0.10;;;;;;;5.67;58.31;100569.25;4987607;28;20061;-68
2023/11/15 01:42:39;;;;;;;4.53;0.10;;;;;;;5.73;58.63;100580.38;4998170;28;20036;-68
2023/11/15 01:45:07;;;;;;;2.80;0.52;;;;;;;5.65;58.00;100589.16;4997097;28;20040;-70
2023/11/15 01:47:34;;;;;;;1.95;0.00;;;;;;;5.53;58.19;100581.69;5000045;28;20038;-69
2023/11/15 01:50:00;;;;;;;1.00;0.10;;;;;;;5.45;58.28;100589.63;5000671;28;20033;-69
2023/11/15 01:52:27;;;;;;;0.57;0.10;;;;;;;5.45;58.43;100593.97;5003710;28;20323;-69
2023/11/15 01:55:00;;;;;;;1.10;0.10;;;;;;;5.49;58.30;100603.38;5014519;28;20041;-69
2023/11/15 01:57:26;;;;;;;0.55;0.10;;;;;;;5.38;58.59;100607.97;4997607;28;20050;-77
2023/11/15 01:59:52;;;;;;;3.00;0.10;;;;;;;5.40;58.78;100607.03;5007984;28;20073;-75
2023/11/15 02:02:18;;;;;;;2.22;0.10;;;;;;;5.48;58.49;100616.38;4989518;28;20041;-75
2023/11/15 02:04:43;;;;;;;1.90;0.00;;;;;;;5.48;58.60;100611.19;4985372;28;20587;-76
2023/11/15 02:07:09;;;;;;;3.70;0.10;;;;;;;5.49;58.70;100613.75;4997482;28;20585;-76
2023/11/15 02:09:41;;;;;;;2.10;0.00;;;;;;;5.45;58.56;100619.91;4999723;28;20087;-76
2023/11/15 02:12:07;;;;;;;0.70;0.00;;;;;;;5.37;58.39;100621.81;4989752;28;20032;-76
2023/11/15 02:14:32;;;;;;;2.35;0.00;;;;;;;5.29;58.38;100619.41;5002623;28;20037;-76
2023/11/15 02:16:58;;;;;;;0.30;0.10;;;;;;;5.24;58.78;100626.44;5012252;28;20041;-77
2023/11/15 02:19:23;;;;;;;0.30;0.00;;;;;;;5.24;58.66;100623.84;4985904;28;20453;-66
2023/11/15 02:21:49;;;;;;;1.48;0.25;;;;;;;5.20;58.92;100625.63;5004888;28;20064;-71
2023/11/15 02:24:15;;;;;;;1.08;0.00;;;;;;;5.20;59.11;100625.63;5000328;28;20046;-66
2023/11/15 02:26:40;;;;;;;0.40;0.00;;;;;;;5.21;59.21;100632.53;4990221;28;20030;-65
2023/11/15 02:29:10;;;;;;;1.65;0.10;;;;;;;5.29;59.05;100637.53;4998991;28;20048;-69
2023/11/15 02:31:36;;;;;;;0.57;0.00;;;;;;;5.38;59.09;100636.47;5003503;28;20041;-69
2023/11/15 02:34:02;;;;;;;0.32;0.08;;;;;;;5.40;59.04;100642.47;5002320;28;20554;-68
2023/11/15 02:36:28;;;;;;;0.20;0.00;;;;;;;5.49;59.09;100652.66;5008888;28;20703;-69
2023/11/15 02:38:53;;;;;;;0.17;0.00;;;;;;;5.52;59.14;100656.91;5002139;28;20141;-68
2023/11/15 02:41:19;;;;;;;1.20;0.10;;;;;;;5.57;58.98;100670.59;5001136;28;20113;-69
2023/11/15 02:43:45;;;;;;;0.35;0.10;;;;;;;5.60;58.82;100665.38;5008436;28;20041;-68
2023/11/15 02:46:10;;;;;;;2.28;0.10;;;;;;;5.65;58.88;100666.97;5000667;28;20712;-69
2023/11/15 02:48:35;;;;;;;0.30;0.00;;;;;;;5.64;58.58;100665.28;5002600;28;20037;-69
2023/11/15 02:51:01;;;;;;;0.35;0.10;;;;;;;5.65;58.89;100663.53;5009574;28;20053;-69
2023/11/15 02:53:26;;;;;;;2.25;0.08;;;;;;;5.65;58.95;100666.13;5001928;28;20065;-67
2023/11/15 02:55:52;;;;;;;1.77;0.25;;;;;;;5.60;58.54;100660.19;4999488;28;20025;-66
2023/11/15 02:58:18;;;;;;;0.70;0.00;;;;;;;5.61;58.86;100672.25;5006789;28;20523;-68
2023/11/15 03:00:44;;;;;;;0.38;0.00;;;;;;;5.62;58.75;100669.63;5001031;28;20037;-69
2023/11/15 03:03:12;;;;;;;0.75;0.10;;;;;;;5.63;58.83;100673.91;5016259;28;20049;-69
2023/11/15 03:05:38;;;;;;;0.77;0.10;;;;;;;5.65;58.70;100685.09;5002783;28;20022;-68
2023/11/15 03:08:06;;;;;;;0.35;0.08;;;;;;;5.65;58.48;100685.09;5000258;28;20125;-68
2023/11/15 03:10:32;;;;;;;0.25;0.00;;;;;;;5.65;58.39;100687.69;4997553;28;20500;-69
2023/11/15 03:12:58;;;;;;;0.28;0.10;;;;;;;5.70;58.42;100691.94;5003871;28;20381;-68
2023/11/15 03:15:23;;;;;;;1.73;0.10;;;;;;;5.62;58.52;100697.31;5001621;28;20041;-68
2023/11/15 03:17:51;;;;;;;0.30;0.10;;;;;;;5.60;58.56;100701.66;5006707;28;20037;-67
2023/11/15 03:20:17;;;;;;;1.08;0.10;;;;;;;5.57;58.37;100702.59;5002449;28;20110;-68
2023/11/15 03:22:42;;;;;;;0.65;0.00;;;;;;;5.60;58.47;100696.50;5000788;28;20534;-69
2023/11/15 03:25:08;;;;;;;1.48;0.00;;;;;;;5.53;58.51;100698.34;5001605;28;20537;-69
2023/11/15 03:27:33;;;;;;;2.72;0.17;;;;;;;5.54;58.14;100704.38;5006160;28;20029;-68
2023/11/15 03:29:59;;;;;;;1.85;0.20;;;;;;;5.46;58.13;100699.38;5006321;28;20385;-67
2023/11/15 03:32:25;;;;;;;0.85;0.08;;;;;;;5.35;57.94;100711.72;5000158;28;20484;-68
2023/11/15 03:34:50;;;;;;;2.47;0.10;;;;;;;5.25;57.95;100711.88;4986860;28;20046;-69
2023/11/15 03:37:18;;;;;;;0.30;0.10;;;;;;;5.19;58.10;100716.34;5000290;28;20034;-69
2023/11/15 03:39:45;;;;;;;0.50;0.10;;;;;;;5.17;58.35;100713.78;5002137;28;20048;-68
2023/11/15 03:42:12;;;;;;;4.03;0.10;;;;;;;5.12;58.34;100720.78;4997611;28;20152;-69
2023/11/15 03:44:37;;;;;;;0.45;0.00;;;;;;;5.04;58.73;100723.53;5002153;28;20264;-71
2023/11/15 03:47:03;;;;;;;0.40;0.00;;;;;;;4.99;58.60;100730.56;5001303;28;20037;-69
2023/11/15 03:49:29;;;;;;;1.70;0.10;;;;;;;4.94;58.67;100736.69;4995815;28;20041;-68
2023/11/15 03:51:55;;;;;;;0.73;0.10;;;;;;;4.95;58.68;100738.41;4988843;28;20052;-70
2023/11/15 03:54:22;;;;;;;1.85;0.10;;;;;;;4.91;58.66;100736.75;5000040;28;20079;-70
2023/11/15 03:56:50;;;;;;;1.25;0.10;;;;;;;4.92;58.63;100739.31;5002319;28;20038;-69
2023/11/15 03:59:16;;;;;;;0.40;0.10;;;;;;;4.82;58.66;100745.50;5004956;28;20038;-69
2023/11/15 04:01:41;;;;;;;0.20;0.10;;;;;;;4.81;58.85;100747.25;5001983;28;20105;-69
2023/11/15 04:04:07;;;;;;;1.20;0.00;;;;;;;4.87;58.69;100754.03;5000615;28;20057;-69
2023/11/15 04:06:32;;;;;;;0.47;0.10;;;;;;;4.96;59.17;100760.81;4999360;28;20030;-69
2023/11/15 04:08:59;;;;;;;1.48;0.10;;;;;;;4.99;59.16;100765.97;5001012;28;20530;-68
2023/11/15 04:11:28;;;;;;;0.77;0.10;;;;;;;5.00;59.03;100762.47;4998548;28;20029;-69
2023/11/15 04:13:55;;;;;;;0.38;0.00;;;;;;;4.98;58.81;100766.84;5005940;28;20034;-70
2023/11/15 04:16:21;;;;;;;2.10;0.20;;;;;;;4.96;59.34;100766.00;5000412;28;20393;-71
2023/11/15 04:18:46;;;;;;;2.85;0.10;;;;;;;5.05;59.16;100765.84;5000081;28;20049;-70
2023/11/15 04:21:12;;;;;;;3.50;0.10;;;;;;;5.13;59.23;100774.31;4994111;28;20069;-69
2023/11/15 04:23:37;;;;;;;1.20;0.08;;;;;;;5.22;59.14;100776.72;5004852;28;20173;-69
2023/11/15 04:26:03;;;;;;;1.73;0.20;;;;;;;5.20;59.23;100786.28;5005325;28;20029;-70
2023/11/15 04:28:32;;;;;;;0.22;0.10;;;;;;;5.24;58.93;100787.94;4998336;28;20452;-70
2023/11/15 04:30:57;;;;;;;1.58;0.13;;;;;;;5.33;59.14;100794.69;4998190;28;20109;-70
2023/11/15 04:33:23;;;;;;;0.47;0.05;;;;;;;5.36;58.62;100796.34;4997971;28;20042;-69
2023/11/15 04:35:48;;;;;;;2.28;0.03;;;;;;;5.30;58.98;100799.94;5003863;28;20029;-68
2023/11/15 04:38:14;;;;;;;1.60;0.10;;;;;;;5.28;58.69;100808.59;4997778;28;20045;-70
2023/11/15 04:40:39;;;;;;;0.75;0.10;;;;;;;5.32;58.84;100805.06;5002152;28;20037;-70
2023/11/15 04:43:05;;;;;;;2.92;0.32;;;;;;;5.25;58.80;100807.75;4999824;28;20052;-67
2023/11/15 04:45:30;;;;;;;0.82;0.65;;;;;;;5.31;59.12;100818.91;5001633;28;20045;-68
2023/11/15 04:47:56;;;;;;;1.02;0.10;;;;;;;5.38;58.73;100820.50;5000069;28;20298;-69
2023/11/15 04:50:22;;;;;;;0.45;0.22;;;;;;;5.32;58.86;100821.47;5001514;28;20072;-70
2023/11/15 04:52:48;;;;;;;0.43;0.10;;;;;;;5.36;58.73;100822.28;4996479;28;20568;-70
2023/11/15 04:55:20;;;;;;;1.02;0.10;;;;;;;5.35;58.82;100828.34;4999901;28;20128;-70
2023/11/15 04:57:45;;;;;;;1.67;0.15;;;;;;;5.18;58.58;100821.72;4999750;28;20021;-71
2023/11/15 05:00:12;;;;;;;1.50;0.10;;;;;;;5.23;58.98;100829.41;5003880;28;20511;-69
2023/11/15 05:02:38;;;;;;;0.60;0.13;;;;;;;5.14;59.21;100827.84;4998314;28;20037;-71
2023/11/15 05:05:05;;;;;;;4.13;0.38;;;;;;;5.25;59.22;100831.09;5008486;28;20037;-70
2023/11/15 05:07:32;;;;;;;1.38;0.28;;;;;;;5.19;59.02;100844.19;4997723;28;20111;-70
2023/11/15 05:09:58;;;;;;;4.05;0.20;;;;;;;5.19;59.24;100844.19;4999215;28;21960;-70
2023/11/15 05:12:24;;;;;;;1.05;0.30;;;;;;;5.29;59.07;100846.59;4996419;28;20084;-70
2023/11/15 05:14:49;;;;;;;2.28;0.45;;;;;;;5.32;59.15;100856.91;4999562;28;20095;-69
2023/11/15 05:17:15;;;;;;;2.80;0.20;;;;;;;5.35;59.26;100854.28;5000566;28;20532;-68
2023/11/15 05:19:41;;;;;;;4.43;0.63;;;;;;;5.28;59.04;100850.06;4996458;28;20173;-71
2023/11/15 05:22:06;;;;;;;0.43;0.10;;;;;;;5.26;58.84;100860.47;4988090;28;20570;-70
2023/11/15 05:24:32;;;;;;;1.20;0.40;;;;;;;5.25;58.79;100862.19;4980419;28;20044;-70
2023/11/15 05:26:58;;;;;;;1.90;0.32;;;;;;;5.29;59.25;100869.91;4992543;28;20120;-69
2023/11/15 05:29:24;;;;;;;3.58;0.40;;;;;;;5.31;58.83;100870.75;5012447;28;20073;-68
2023/11/15 05:31:52;;;;;;;1.02;0.20;;;;;;;5.22;58.80;100866.59;5000137;28;20041;-66
2023/11/15 05:34:17;;;;;;;2.58;0.20;;;;;;;5.20;58.96;100870.94;5012134;28;20841;-68
2023/11/15 05:36:42;;;;;;;0.30;0.20;;;;;;;5.20;58.82;100871.78;5000879;28;20117;-68
2023/11/15 05:39:11;;;;;;;0.82;0.20;;;;;;;5.22;59.08;100877.78;5006571;28;20033;-68
2023/11/15 05:41:36;;;;;;;0.32;0.10;;;;;;;5.16;58.64;100872.72;4984182;28;20068;-70
2023/11/15 05:44:02;;;;;;;0.85;0.10;;;;;;;5.04;58.69;100872.94;5000762;28;20041;-67
2023/11/15 05:46:27;;;;;;;1.67;0.40;;;;;;;4.94;58.87;100879.16;4995271;28;20147;-67
2023/11/15 05:48:53;;;;;;;3.78;0.35;;;;;;;4.97;59.00;100879.13;4998413;28;20065;-70
2023/11/15 05:51:19;;;;;;;3.15;0.43;;;;;;;5.06;59.08;100881.53;5005384;28;20607;-69
2023/11/15 05:53:49;;;;;;;1.33;0.20;;;;;;;5.07;59.22;100878.06;5001842;28;20041;-67
2023/11/15 05:56:15;;;;;;;1.35;0.20;;;;;;;5.12;58.97;100884.00;5005882;28;20045;-70
2023/11/15 05:58:41;;;;;;;2.45;0.20;;;;;;;5.10;59.03;100883.22;5002007;28;20049;-70
2023/11/15 06:01:07;;;;;;;1.58;0.20;;;;;;;5.12;59.10;100881.41;5004558;28;20404;-69
2023/11/15 06:03:32;;;;;;;1.58;0.25;;;;;;;5.10;58.95;100887.50;5000805;28;20037;-68
2023/11/15 06:05:59;;;;;;;1.10;0.50;;;;;;;5.04;59.08;100886.75;5003336;28;20637;-71
2023/11/15 06:08:24;;;;;;;3.55;0.30;;;;;;;4.96;59.45;100898.09;4999291;28;20046;-68
2023/11/15 06:10:50;;;;;;;2.38;0.25;;;;;;;4.93;59.17;100900.75;5003488;28;22405;-69
2023/11/15 06:13:15;;;;;;;3.25;0.20;;;;;;;4.84;58.70;100897.38;5010772;28;20065;-67
2023/11/15 06:15:42;;;;;;;0.60;0.13;;;;;;;4.69;58.38;100894.19;5001091;28;20076;-69
2023/11/15 06:18:10;;;;;;;0.50;0.10;;;;;;;4.51;58.27;100897.91;5008087;28;20034;-66
2023/11/15 06:20:40;;;;;;;0.93;0.20;;;;;;;4.49;58.45;100902.25;5006993;28;20036;-69
2023/11/15 06:23:08;;;;;;;0.63;0.30;;;;;;;4.40;58.41;100906.66;5005190;28;20764;-67
2023/11/15 06:25:34;;;;;;;1.02;0.30;;;;;;;4.33;58.82;100897.28;5000031;28;20037;-68
2023/11/15 06:28:00;;;;;;;2.08;0.47;;;;;;;4.22;58.42;100914.69;4998373;28;20029;-69
2023/11/15 06:30:25;;;;;;;2.05;0.30;;;;;;;4.12;58.71;100910.47;5000824;28;20048;-67
2023/11/15 06:32:50;;;;;;;1.05;0.32;;;;;;;4.03;58.94;100916.66;5002908;28;20144;-69
2023/11/15 06:35:19;;;;;;;1.75;0.60;;;;;;;4.03;59.09;100916.66;5006634;28;20511;-68
2023/11/15 06:37:50;;;;;;;2.47;0.52;;;;;;;4.00;58.86;100927.88;5001579;28;20065;-65
2023/11/15 06:40:17;;;;;;;1.63;0.77;;;;;;;3.97;59.29;100922.75;5007344;28;20091;-68
2023/11/15 06:42:43;;;;;;;3.45;0.80;;;;;;;3.90;59.12;100928.88;4997296;28;20037;-68
2023/11/15 06:45:10;;;;;;;3.13;0.70;;;;;;;3.82;59.34;100928.06;4990534;28;20587;-68
2023/11/15 06:47:35;;;;;;;4.45;0.90;;;;;;;3.83;59.06;100927.22;5003279;28;20033;-68
2023/11/15 06:50:04;;;;;;;3.70;0.43;;;;;;;3.81;59.15;100926.38;5001615;28;20042;-69
2023/11/15 06:52:32;;;;;;;1.55;0.52;;;;;;;3.82;58.98;100928.06;4997836;28;20132;-67
2023/11/15 06:54:57;;;;;;;7.53;0.85;;;;;;;3.91;59.20;100935.72;5001044;28;20069;-71
2023/11/15 06:57:23;;;;;;;1.70;0.47;;;;;;;3.76;59.08;100929.03;4999278;28;20141;-69
2023/11/15 06:59:48;;;;;;;3.53;0.68;;;;;;;3.68;59.00;100937.72;4994550;28;20041;-69
2023/11/15 07:02:13;;;;;;;1.90;0.50;;;;;;;3.60;59.33;100935.19;5002949;28;20042;-69
2023/11/15 07:04:41;;;;;;;2.05;0.80;;;;;;;3.60;59.23;100948.13;5000684;28;20136;-70
2023/11/15 07:07:06;;;;;;;1.67;0.85;;;;;;;3.64;59.41;100949.81;4994324;28;20030;-69
2023/11/15 07:09:33;;;;;;;2.03;1.17;;;;;;;3.71;60.06;100954.03;4997852;28;20029;-70
2023/11/15 07:11:59;;;;;;;3.97;1.75;;;;;;;3.79;60.07;100959.16;5003545;28;20042;-71
2023/11/15 07:14:26;;;;;;;4.50;2.15;;;;;;;3.88;59.92;100958.19;4998196;28;20044;-67
2023/11/15 07:16:55;;;;;;;2.95;0.80;;;;;;;3.94;59.95;100951.22;5001085;28;20026;-68
2023/11/15 07:19:27;;;;;;;1.95;0.82;;;;;;;3.98;59.89;100971.03;5001491;28;20405;-69
2023/11/15 07:21:53;;;;;;;3.38;0.57;;;;;;;3.96;59.70;100962.41;5001399;28;20119;-68
2023/11/15 07:24:20;;;;;;;2.97;0.68;;;;;;;3.85;59.53;100964.25;5009738;28;20512;-70
2023/11/15 07:26:48;;;;;;;2.45;0.65;;;;;;;3.82;59.88;100973.78;4998299;28;20030;-69
2023/11/15 07:29:20;;;;;;;2.67;0.90;;;;;;;3.86;59.94;100976.31;5000321;28;20496;-71
2023/11/15 07:31:52;;;;;;;1.65;0.50;;;;;;;4.00;60.06;100979.59;5001626;28;20079;-71
2023/11/15 07:34:22;;;;;;;1.38;0.55;;;;;;;4.22;60.18;100979.34;5017017;28;20056;-71
2023/11/15 07:36:53;;;;;;;1.80;0.40;;;;;;;4.42;59.88;100981.69;4999547;28;20052;-70
2023/11/15 07:39:20;;;;;;;1.27;0.73;;;;;;;4.70;59.77;100977.03;4998806;28;20632;-69
2023/11/15 07:41:45;;;;;;;2.95;0.75;;;;;;;4.96;58.47;100988.75;4998868;28;20287;-69
2023/11/15 07:44:17;;;;;;;1.40;0.70;;;;;;;4.97;57.91;100977.53;5003679;28;20535;-70
2023/11/15 07:46:46;;;;;;;2.78;0.73;;;;;;;5.03;58.25;100988.66;4995975;28;20569;-70
2023/11/15 07:49:18;;;;;;;7.82;0.63;;;;;;;5.16;57.80;100984.13;4985471;28;20046;-69
2023/11/15 07:51:44;;;;;;;8.23;2.58;;;;;;;5.19;57.87;100991.88;4998284;28;20037;-70
2023/11/15 07:54:10;;;;;;;13.45;3.80;;;;;;;5.18;57.81;101000.50;5007910;28;20034;-73
2023/11/15 07:56:35;;;;;;;8.57;4.80;;;;;;;5.21;57.85;101000.47;4999778;28;20159;-72
2023/11/15 07:59:01;;;;;;;11.30;4.68;;;;;;;5.47;57.76;100996.59;4999279;28;20038;-68
2023/11/15 08:01:26;;;;;;;10.45;4.13;;;;;;;5.84;57.96;101001.16;5006608;28;20558;-71
2023/11/15 08:03:53;;;;;;;15.18;5.72;;;;;;;7.02;56.95;101010.88;5014949;28;20473;-72
2023/11/15 08:06:19;;;;;;;11.23;5.43;;;;;;;7.71;52.83;100999.69;4993203;28;20516;-69
2023/11/15 08:08:45;;;;;;;15.38;6.00;;;;;;;7.47;51.72;101008.94;4996641;28;20068;-72
2023/11/15 08:11:13;;;;;;;18.35;7.90;;;;;;;7.00;52.50;101013.53;5001789;28;20543;-71
2023/11/15 08:13:39;;;;;;;13.40;6.82;;;;;;;6.56;52.95;101006.72;5004576;28;20041;-72
2023/11/15 08:16:09;;;;;;;15.73;7.45;;;;;;;6.08;53.95;101021.47;5003419;28;20044;-71
2023/11/15 08:18:34;;;;;;;11.05;5.00;;;;;;;5.71;54.09;101016.06;4995898;28;20113;-71
2023/11/15 08:21:01;;;;;;;11.25;5.07;;;;;;;5.47;54.59;101019.94;5002106;28;20176;-66
2023/11/15 08:23:28;;;;;;;13.10;7.03;;;;;;;5.29;55.36;101022.81;5003444;28;20124;-66
2023/11/15 08:25:53;;;;;;;18.05;5.78;;;;;;;5.24;55.90;101018.56;5001332;28;20030;-65
2023/11/15 08:28:22;;;;;;;9.63;5.88;;;;;;;5.36;56.67;101027.88;4997481;28;20675;-67
2023/11/15 08:30:50;;;;;;;6.03;4.45;;;;;;;5.46;56.49;101031.19;4997349;28;20041;-66
2023/11/15 08:33:16;;;;;;;8.90;3.95;;;;;;;5.52;56.51;101031.06;4997023;28;20054;-66
2023/11/15 08:35:43;;;;;;;3.63;1.50;;;;;;;5.57;56.41;101034.47;5001188;28;20038;-67
2023/11/15 08:38:09;;;;;;;4.95;1.30;;;;;;;5.49;57.30;101041.50;4995433;28;20128;-70
2023/11/15 08:40:37;;;;;;;0.90;0.50;;;;;;;5.53;57.59;101042.31;5003104;28;20496;-68
2023/11/15 08:43:03;;;;;;;2.00;0.50;;;;;;;5.60;57.82;101039.59;4999032;28;20029;-69
2023/11/15 08:45:28;;;;;;;1.45;0.63;;;;;;;5.89;57.83;101056.41;4999446;28;20014;-69
2023/11/15 08:47:57;;;;;;;1.13;0.70;;;;;;;5.79;57.38;101047.94;4994639;28;20146;-66
2023/11/15 08:50:24;;;;;;;1.30;0.30;;;;;;;6.13;57.52;101049.03;4998519;28;20163;-68
2023/11/15 08:52:49;;;;;;;1.20;0.60;;;;;;;6.43;57.56;101055.44;4995411;28;20037;-70
2023/11/15 08:55:14;;;;;;;2.30;0.50;;;;;;;6.82;57.29;101050.28;4997479;28;20034;-67
2023/11/15 08:57:40;;;;;;;4.45;0.57;;;;;;;7.25;56.44;101050.19;5001367;28;20061;-67
2023/11/15 09:00:12;;;;;;;2.28;0.52;;;;;;;7.15;54.29;101040.91;4997276;28;20041;-70
2023/11/15 09:02:44;;;;;;;2.00;0.30;;;;;;;7.62;56.49;101048.50;5001631;28;20040;-67
2023/11/15 09:05:11;;;;;;;2.28;0.30;;;;;;;8.28;53.71;101044.16;4997487;28;20124;-67
2023/11/15 09:07:38;;;;;;;1.88;0.20;;;;;;;8.67;53.52;101051.72;4996483;28;20064;-67
2023/11/15 09:10:08;;;;;;;6.85;0.75;;;;;;;9.66;53.81;101058.25;4994051;28;20061;-66
2023/11/15 09:12:35;;;;;;;0.77;0.20;;;;;;;10.48;49.90;101047.59;4995059;28;20044;-67
2023/11/15 09:15:11;;;;;;;0.68;0.65;;;;;;;9.54;46.43;101053.41;4998995;28;20033;-66
2023/11/15 09:17:38;;;;;;;1.60;0.30;;;;;;;10.30;46.46;101051.72;4995593;28;20034;-68
2023/11/15 09:20:08;;;;;;;1.10;0.22;;;;;;;10.24;46.17;101051.97;4996111;28;20140;-68
2023/11/15 09:22:35;;;;;;;1.60;0.25;;;;;;;10.27;46.55;101057.06;4986349;28;20092;-67
2023/11/15 09:25:01;;;;;;;2.15;0.20;;;;;;;10.78;46.92;101053.44;5001998;28;20140;-67
2023/11/15 09:27:28;;;;;;;0.90;0.20;;;;;;;11.29;43.07;101065.44;4996992;28;20040;-66
2023/11/15 09:29:54;;;;;;;4.82;0.47;;;;;;;10.51;43.98;101066.63;4983542;28;20072;-66
2023/11/15 09:32:20;;;;;;;3.50;0.45;;;;;;;11.55;43.57;101059.13;5001600;28;20038;-67
2023/11/15 09:34:46;;;;;;;0.32;0.13;;;;;;;11.34;42.15;101063.47;4992049;28;20457;-66
2023/11/15 09:37:12;;;;;;;4.10;0.20;;;;;;;11.62;43.61;101063.22;4996406;28;20046;-67
2023/11/15 09:39:39;;;;;;;1.83;0.20;;;;;;;11.74;43.20;101051.38;4998562;28;20057;-67
2023/11/15 09:42:05;;;;;;;1.50;0.20;;;;;;;11.53;42.35;101052.25;4998773;28;20038;-67
2023/11/15 09:44:35;;;;;;;1.40;0.20;;;;;;;11.32;43.25;101059.22;5000537;28;20705;-66
2023/11/15 09:47:03;;;;;;;1.17;0.10;;;;;;;11.06;42.88;101058.47;4998471;28;20452;-67
2023/11/15 09:49:31;;;;;;;1.70;0.20;;;;;;;11.13;43.92;101056.47;4998583;28;21681;-67
2023/11/15 09:52:00;;;;;;;2.20;0.28;;;;;;;11.34;43.56;101058.25;5004411;28;20466;-67
2023/11/15 09:54:26;;;;;;;0.55;0.10;;;;;;;10.58;45.06;101056.81;4994427;28;20049;-67
2023/11/15 09:56:52;;;;;;;1.60;0.40;;;;;;;10.79;45.65;101060.38;4993474;28;20037;-69
2023/11/15 09:59:19;;;;;;;0.60;0.20;;;;;;;10.81;44.05;101050.72;4995618;28;20123;-69
2023/11/15 10:01:48;;;;;;;0.95;0.25;;;;;;;10.16;44.38;101054.84;4990764;28;20045;-69
2023/11/15 10:04:25;;;;;;;1.23;0.50;;;;;;;9.37;46.08;101054.84;4997429;28;20049;-68
2023/11/15 10:06:51;;;;;;;0.60;0.20;;;;;;;9.46;47.04;101058.06;4992464;28;20100;-69
2023/11/15 10:09:31;;;;;;;1.13;0.30;;;;;;;9.32;46.54;101048.91;4992960;28;20053;-69
2023/11/15 10:12:00;;;;;;;3.72;0.20;;;;;;;9.02;48.06;101047.25;5001370;28;20052;-69
2023/11/15 10:14:27;;;;;;;1.88;0.30;;;;;;;9.19;48.44;101045.00;4994528;28;20046;-69
2023/11/15 10:16:56;;;;;;;1.05;0.20;;;;;;;9.42;48.02;101051.22;4993577;28;20033;-70
2023/11/15 10:19:26;;;;;;;1.02;0.20;;;;;;;10.12;46.92;101051.47;4994954;28;20604;-68
2023/11/15 10:22:02;;;;;;;4.32;0.88;;;;;;;10.32;46.51;101048.16;4999589;28;20040;-69
2023/11/15 10:24:29;;;;;;;1.73;0.95;;;;;;;10.41;45.87;101055.69;4998293;28;20452;-67
2023/11/15 10:27:04;;;;;;;1.45;0.43;;;;;;;10.40;45.79;101053.97;4999205;28;20037;-66
2023/11/15 10:29:31;;;;;;;1.60;0.77;;;;;;;10.26;46.33;101052.75;4989957;28;20037;-68
2023/11/15 10:32:00;;;;;;;7.40;0.30;;;;;;;10.36;45.93;101052.34;4990239;28;20827;-66
2023/11/15 10:34:31;;;;;;;0.88;0.43;;;;;;;10.60;44.97;101055.84;4989721;28;20390;-66
2023/11/15 10:37:16;;;;;;;3.13;0.32;;;;;;;10.29;44.74;101052.66;5001334;28;21403;-65
2023/11/15 10:39:46;;;;;;;0.75;0.15;;;;;;;10.16;46.28;101054.84;4970001;28;20045;-67
2023/11/15 10:42:12;;;;;;;1.10;0.40;;;;;;;10.03;46.76;101057.03;4997455;28;20252;-70
2023/11/15 10:44:40;;;;;;;1.40;0.30;;;;;;;9.68;46.51;101052.97;4982275;28;20056;-68
2023/11/15 10:47:08;;;;;;;1.98;0.20;;;;;;;9.64;46.75;101052.22;4997866;28;20022;-67
2023/11/15 10:49:42;;;;;;;1.90;0.17;;;;;;;9.36;46.95;101057.47;4990095;28;20049;-68
2023/11/15 10:52:11;;;;;;;3.55;0.30;;;;;;;9.17;46.75;101054.63;4997152;28;20041;-67
2023/11/15 10:54:38;;;;;;;1.50;0.70;;;;;;;9.10;47.13;101053.09;4994233;28;20032;-66
2023/11/15 10:57:07;;;;;;;1.58;0.10;;;;;;;9.09;47.12;101048.78;4994398;28;20539;-65
2023/11/15 10:59:40;;;;;;;0.77;0.10;;;;;;;8.84;47.58;101046.06;4995132;28;20138;-66
2023/11/15 11:02:09;;;;;;;2.72;0.10;;;;;;;9.08;46.79;101041.88;4996414;28;20033;-67
2023/11/15 11:04:36;;;;;;;3.80;0.20;;;;;;;9.04;47.03;101051.53;4997596;28;20371;-66
2023/11/15 11:07:29;;;;;;;1.08;0.20;;;;;;;8.47;47.68;101047.97;5003305;28;20052;-66
2023/11/15 11:10:09;;;;;;;1.70;0.22;;;;;;;8.56;48.21;101049.44;4987165;28;20042;-67
2023/11/15 11:12:36;;;;;;;2.15;0.47;;;;;;;8.85;47.89;101051.25;5000820;28;20026;-67
2023/11/15 11:15:18;;;;;;;1.23;0.65;;;;;;;8.32;49.17;101046.66;5001607;28;20045;-67
2023/11/15 11:17:45;;;;;;;2.38;0.98;;;;;;;8.66;48.78;101055.25;4997535;28;20041;-67
2023/11/15 11:20:25;;;;;;;0.88;0.15;;;;;;;8.68;48.70;101046.50;4984700;28;20056;-66
2023/11/15 11:23:23;;;;;;;1.40;0.10;;;;;;;8.41;49.51;101048.13;4997361;28;20041;-70
2023/11/15 11:25:51;;;;;;;0.57;0.25;;;;;;;8.53;49.50;101050.38;4958995;28;20056;-67
2023/11/15 11:28:20;;;;;;;3.85;0.32;;;;;;;8.47;50.26;101054.91;4995716;28;20049;-68
2023/11/15 11:31:18;;;;;;;1.50;0.30;;;;;;;8.70;49.99;101052.50;4995565;28;20048;-67
2023/11/15 11:34:10;;;;;;;3.08;0.20;;;;;;;8.92;50.58;101050.16;4991152;28;20049;-66